RYR1892 LOWW-LIME
Flight info
| Callsign | RYR1892 |
|---|---|
| Flight time | 0h 59m |
| Altitude | 34000 |
| Route | IMVO3C/29 OSPEN DCT ABRUK DCT SETAL DCT DETSA/N0447F330 DCT RENTA/N0369F190 M984 LUSIL T772 EKLIB |
| Aircraft | A320/M-SDE3FGHIRWY/LB1 |
Departure
| Time | 2026-05-07 20:19 |
|---|---|
| Airport | Vienna International Airport (LOWW) |
Arrival
| Time | 2026-05-07 21:19 |
|---|---|
| Airport | Il Caravaggio International Airport (LIME) |
| Time | Latitude | Longitude | Altitude | Speed | Heading |
|---|---|---|---|---|---|
| 2026-05-07 19:36 | 48.12052 | 16.55636 | 609 ft | 0 kts | 115° |
| 2026-05-07 20:11 | 48.12062 | 16.55608 | 624 ft | 4 kts | 124° |
| 2026-05-07 20:12 | 48.12079 | 16.55579 | 624 ft | 4 kts | 152° |
| 2026-05-07 20:12 | 48.12101 | 16.55572 | 617 ft | 2 kts | 205° |
| 2026-05-07 20:12 | 48.12106 | 16.55576 | 624 ft | 0 kts | 206° |
| 2026-05-07 20:14 | 48.12087 | 16.55562 | 624 ft | 8 kts | 205° |
| 2026-05-07 20:14 | 48.12026 | 16.55521 | 622 ft | 11 kts | 204° |
| 2026-05-07 20:15 | 48.11951 | 16.55464 | 610 ft | 13 kts | 206° |
| 2026-05-07 20:15 | 48.11857 | 16.55431 | 620 ft | 15 kts | 186° |
| 2026-05-07 20:15 | 48.11793 | 16.55486 | 618 ft | 13 kts | 118° |
| 2026-05-07 20:15 | 48.11750 | 16.55613 | 618 ft | 15 kts | 116° |
| 2026-05-07 20:16 | 48.11704 | 16.55760 | 619 ft | 17 kts | 115° |
| 2026-05-07 20:16 | 48.11649 | 16.55925 | 615 ft | 19 kts | 116° |
| 2026-05-07 20:16 | 48.11589 | 16.56112 | 619 ft | 21 kts | 114° |
| 2026-05-07 20:16 | 48.11521 | 16.56316 | 610 ft | 23 kts | 116° |
| 2026-05-07 20:17 | 48.11446 | 16.56544 | 623 ft | 26 kts | 116° |
| 2026-05-07 20:17 | 48.11364 | 16.56794 | 617 ft | 28 kts | 116° |
| 2026-05-07 20:17 | 48.11278 | 16.57063 | 615 ft | 30 kts | 115° |
| 2026-05-07 20:17 | 48.11217 | 16.57225 | 612 ft | 16 kts | 132° |
| 2026-05-07 20:18 | 48.11166 | 16.57225 | 613 ft | 10 kts | 208° |
| 2026-05-07 20:18 | 48.11095 | 16.57170 | 610 ft | 13 kts | 207° |
| 2026-05-07 20:18 | 48.11066 | 16.57067 | 610 ft | 13 kts | 295° |
| 2026-05-07 20:18 | 48.11154 | 16.56786 | 619 ft | 60 kts | 295° |
| 2026-05-07 20:19 | 48.11440 | 16.55928 | 618 ft | 120 kts | 296° |
| 2026-05-07 20:19 | 48.11868 | 16.54587 | 647 ft | 161 kts | 292° |
| 2026-05-07 20:19 | 48.12246 | 16.53024 | 1177 ft | 160 kts | 264° |
| 2026-05-07 20:19 | 48.11889 | 16.51451 | 1670 ft | 171 kts | 232° |
| 2026-05-07 20:20 | 48.10937 | 16.50330 | 2237 ft | 180 kts | 216° |
| 2026-05-07 20:20 | 48.09855 | 16.49299 | 2757 ft | 188 kts | 218° |
| 2026-05-07 20:20 | 48.08740 | 16.48212 | 3321 ft | 194 kts | 218° |
| 2026-05-07 20:20 | 48.07590 | 16.47049 | 3856 ft | 203 kts | 224° |
| 2026-05-07 20:21 | 48.06510 | 16.45647 | 4419 ft | 214 kts | 224° |
| 2026-05-07 20:21 | 48.05349 | 16.44126 | 5000 ft | 228 kts | 224° |
| 2026-05-07 20:21 | 48.04114 | 16.42511 | 5564 ft | 243 kts | 223° |
| 2026-05-07 20:21 | 48.02798 | 16.40794 | 6135 ft | 260 kts | 223° |
| 2026-05-07 20:22 | 48.01396 | 16.38969 | 6695 ft | 272 kts | 223° |
| 2026-05-07 20:22 | 47.99952 | 16.37092 | 7226 ft | 277 kts | 223° |
| 2026-05-07 20:22 | 47.98495 | 16.35197 | 7790 ft | 279 kts | 223° |
| 2026-05-07 20:22 | 47.97044 | 16.33255 | 8348 ft | 280 kts | 228° |
| 2026-05-07 20:23 | 47.95871 | 16.30939 | 8917 ft | 280 kts | 242° |
| 2026-05-07 20:23 | 47.95098 | 16.28261 | 9511 ft | 281 kts | 251° |
| 2026-05-07 20:23 | 47.94439 | 16.25540 | 10068 ft | 283 kts | 251° |
| 2026-05-07 20:23 | 47.93753 | 16.22723 | 10610 ft | 295 kts | 251° |
| 2026-05-07 20:24 | 47.93032 | 16.19789 | 11148 ft | 305 kts | 250° |
| 2026-05-07 20:24 | 47.92409 | 16.17240 | 11619 ft | 313 kts | 246° |
| 2026-05-07 20:25 | 47.92222 | 16.16486 | 11727 ft | 315 kts | 253° |
| 2026-05-07 20:25 | 47.91461 | 16.13368 | 12308 ft | 323 kts | 250° |
| 2026-05-07 20:26 | 47.90683 | 16.10228 | 12865 ft | 331 kts | 250° |
| 2026-05-07 20:26 | 47.89871 | 16.06962 | 13416 ft | 340 kts | 250° |
| 2026-05-07 20:26 | 47.89035 | 16.03594 | 13902 ft | 350 kts | 250° |
| 2026-05-07 20:26 | 47.88085 | 16.00206 | 14338 ft | 360 kts | 243° |
| 2026-05-07 20:27 | 47.86760 | 15.96982 | 14784 ft | 368 kts | 234° |
| 2026-05-07 20:27 | 47.85076 | 15.94065 | 15221 ft | 376 kts | 225° |
| 2026-05-07 20:27 | 47.83054 | 15.91519 | 15653 ft | 385 kts | 218° |
| 2026-05-07 20:27 | 47.80926 | 15.89118 | 16082 ft | 392 kts | 218° |
| 2026-05-07 20:28 | 47.78726 | 15.86629 | 16525 ft | 400 kts | 218° |
| 2026-05-07 20:28 | 47.76493 | 15.84099 | 16975 ft | 406 kts | 218° |
| 2026-05-07 20:28 | 47.74223 | 15.81531 | 17427 ft | 412 kts | 218° |
| 2026-05-07 20:28 | 47.71926 | 15.78939 | 17889 ft | 417 kts | 218° |
| 2026-05-07 20:29 | 47.69596 | 15.76318 | 18380 ft | 420 kts | 218° |
| 2026-05-07 20:29 | 47.67259 | 15.73694 | 18859 ft | 422 kts | 218° |
| 2026-05-07 20:29 | 47.64938 | 15.71090 | 19329 ft | 424 kts | 218° |
| 2026-05-07 20:29 | 47.62575 | 15.68440 | 19831 ft | 425 kts | 218° |
| 2026-05-07 20:30 | 47.60208 | 15.65784 | 20328 ft | 427 kts | 218° |
| 2026-05-07 20:30 | 47.57859 | 15.63154 | 20834 ft | 427 kts | 218° |
| 2026-05-07 20:30 | 47.55486 | 15.60506 | 21348 ft | 427 kts | 218° |
| 2026-05-07 20:30 | 47.53117 | 15.57837 | 21870 ft | 426 kts | 220° |
| 2026-05-07 20:31 | 47.50968 | 15.54834 | 22406 ft | 424 kts | 229° |
| 2026-05-07 20:31 | 47.49737 | 15.52607 | 22762 ft | 423 kts | 234° |
| 2026-05-07 20:31 | 47.48186 | 15.48917 | 23310 ft | 421 kts | 243° |
| 2026-05-07 20:31 | 47.47045 | 15.44944 | 23842 ft | 420 kts | 251° |
| 2026-05-07 20:32 | 47.46232 | 15.40801 | 24308 ft | 419 kts | 254° |
| 2026-05-07 20:32 | 47.45436 | 15.36665 | 24788 ft | 417 kts | 254° |
| 2026-05-07 20:32 | 47.44627 | 15.32546 | 25278 ft | 416 kts | 253° |
| 2026-05-07 20:32 | 47.43814 | 15.28455 | 25774 ft | 415 kts | 254° |
| 2026-05-07 20:33 | 47.43001 | 15.24365 | 26281 ft | 413 kts | 254° |
| 2026-05-07 20:33 | 47.42201 | 15.20342 | 26793 ft | 412 kts | 254° |
| 2026-05-07 20:33 | 47.41397 | 15.16293 | 27327 ft | 410 kts | 254° |
| 2026-05-07 20:33 | 47.40596 | 15.12251 | 27861 ft | 409 kts | 254° |
| 2026-05-07 20:34 | 47.39801 | 15.08240 | 28408 ft | 407 kts | 254° |
| 2026-05-07 20:34 | 47.39007 | 15.04225 | 28975 ft | 405 kts | 254° |
| 2026-05-07 20:34 | 47.38229 | 15.00286 | 29539 ft | 402 kts | 254° |
| 2026-05-07 20:34 | 47.37444 | 14.96324 | 30118 ft | 400 kts | 254° |
| 2026-05-07 20:35 | 47.36660 | 14.92371 | 30612 ft | 398 kts | 254° |
| 2026-05-07 20:35 | 47.35880 | 14.88458 | 31111 ft | 396 kts | 254° |
| 2026-05-07 20:35 | 47.35112 | 14.84616 | 31606 ft | 394 kts | 254° |
| 2026-05-07 20:35 | 47.34338 | 14.80750 | 32115 ft | 392 kts | 254° |
| 2026-05-07 20:36 | 47.33569 | 14.76905 | 32634 ft | 388 kts | 254° |
| 2026-05-07 20:36 | 47.32803 | 14.73090 | 33165 ft | 386 kts | 254° |
| 2026-05-07 20:36 | 47.32038 | 14.69304 | 33705 ft | 383 kts | 254° |
| 2026-05-07 20:36 | 47.31276 | 14.65533 | 34052 ft | 386 kts | 254° |
| 2026-05-07 20:37 | 47.30506 | 14.61752 | 34107 ft | 393 kts | 253° |
| 2026-05-07 20:37 | 47.28891 | 14.53835 | 34105 ft | 412 kts | 254° |
| 2026-05-07 20:38 | 47.27221 | 14.45634 | 34109 ft | 421 kts | 254° |
| 2026-05-07 20:38 | 47.25534 | 14.37403 | 34114 ft | 421 kts | 254° |
| 2026-05-07 20:39 | 47.23831 | 14.29144 | 34092 ft | 421 kts | 254° |
| 2026-05-07 20:39 | 47.22138 | 14.20948 | 34099 ft | 420 kts | 254° |
| 2026-05-07 20:40 | 47.20432 | 14.12708 | 34101 ft | 420 kts | 254° |
| 2026-05-07 20:40 | 47.18718 | 14.04492 | 34099 ft | 420 kts | 254° |
| 2026-05-07 20:41 | 47.17006 | 13.96313 | 34096 ft | 420 kts | 254° |
| 2026-05-07 20:41 | 47.15281 | 13.88088 | 34093 ft | 420 kts | 254° |
| 2026-05-07 20:42 | 47.13560 | 13.79932 | 34096 ft | 419 kts | 254° |
| 2026-05-07 20:42 | 47.11824 | 13.71746 | 34099 ft | 419 kts | 254° |
| 2026-05-07 20:43 | 47.10083 | 13.63569 | 34099 ft | 419 kts | 254° |
| 2026-05-07 20:43 | 47.08354 | 13.55453 | 34093 ft | 418 kts | 253° |
| 2026-05-07 20:44 | 47.06601 | 13.47303 | 34092 ft | 418 kts | 254° |
| 2026-05-07 20:44 | 47.04859 | 13.39218 | 34090 ft | 417 kts | 254° |
| 2026-05-07 20:45 | 47.03110 | 13.31109 | 34086 ft | 417 kts | 253° |
| 2026-05-07 20:45 | 47.01354 | 13.22990 | 34087 ft | 416 kts | 254° |
| 2026-05-07 20:46 | 46.99603 | 13.14945 | 34088 ft | 416 kts | 253° |
| 2026-05-07 20:46 | 46.97836 | 13.06874 | 34085 ft | 415 kts | 254° |
| 2026-05-07 20:47 | 46.96077 | 12.98861 | 34085 ft | 414 kts | 253° |
| 2026-05-07 20:47 | 46.94301 | 12.90818 | 34080 ft | 414 kts | 253° |
| 2026-05-07 20:48 | 46.92528 | 12.82813 | 34076 ft | 413 kts | 253° |
| 2026-05-07 20:48 | 46.90768 | 12.74866 | 34072 ft | 412 kts | 253° |
| 2026-05-07 20:49 | 46.88989 | 12.66880 | 34078 ft | 412 kts | 253° |
| 2026-05-07 20:49 | 46.87209 | 12.58895 | 34094 ft | 412 kts | 253° |
| 2026-05-07 20:50 | 46.85437 | 12.50980 | 34101 ft | 411 kts | 253° |
| 2026-05-07 20:50 | 46.83642 | 12.43046 | 34120 ft | 411 kts | 253° |
| 2026-05-07 20:51 | 46.81838 | 12.35096 | 34139 ft | 411 kts | 253° |
| 2026-05-07 20:51 | 46.79950 | 12.27268 | 34150 ft | 412 kts | 247° |
| 2026-05-07 20:52 | 46.77385 | 12.19753 | 34149 ft | 412 kts | 246° |
| 2026-05-07 20:52 | 46.74829 | 12.12309 | 34145 ft | 412 kts | 246° |
| 2026-05-07 20:53 | 46.72258 | 12.04807 | 34127 ft | 412 kts | 246° |
| 2026-05-07 20:53 | 46.69707 | 11.97386 | 34110 ft | 412 kts | 246° |
| 2026-05-07 20:54 | 46.67127 | 11.89913 | 34091 ft | 413 kts | 246° |
| 2026-05-07 20:54 | 46.64525 | 11.82426 | 34065 ft | 413 kts | 246° |
| 2026-05-07 20:55 | 46.61947 | 11.75022 | 34046 ft | 413 kts | 245° |
| 2026-05-07 20:55 | 46.59347 | 11.67571 | 33920 ft | 414 kts | 245° |
| 2026-05-07 20:55 | 46.58040 | 11.63833 | 33342 ft | 414 kts | 245° |
| 2026-05-07 20:56 | 46.56733 | 11.60097 | 32812 ft | 415 kts | 245° |
| 2026-05-07 20:56 | 46.55423 | 11.56351 | 32271 ft | 416 kts | 245° |
| 2026-05-07 20:56 | 46.54109 | 11.52591 | 31746 ft | 418 kts | 245° |
| 2026-05-07 20:56 | 46.52785 | 11.48808 | 31228 ft | 419 kts | 245° |
| 2026-05-07 20:57 | 46.51465 | 11.45056 | 30728 ft | 422 kts | 245° |
| 2026-05-07 20:57 | 46.50124 | 11.41259 | 30238 ft | 423 kts | 245° |
| 2026-05-07 20:57 | 46.48771 | 11.37444 | 29686 ft | 425 kts | 245° |
| 2026-05-07 20:57 | 46.47411 | 11.33609 | 29124 ft | 427 kts | 245° |
| 2026-05-07 20:58 | 46.46064 | 11.29810 | 28562 ft | 430 kts | 245° |
| 2026-05-07 20:58 | 46.44683 | 11.25915 | 28007 ft | 433 kts | 245° |
| 2026-05-07 20:58 | 46.43300 | 11.22012 | 27458 ft | 435 kts | 245° |
| 2026-05-07 20:58 | 46.41926 | 11.18137 | 26938 ft | 438 kts | 244° |
| 2026-05-07 20:59 | 46.40526 | 11.14193 | 26537 ft | 441 kts | 244° |
| 2026-05-07 20:59 | 46.39110 | 11.10207 | 26028 ft | 444 kts | 244° |
| 2026-05-07 20:59 | 46.37686 | 11.06211 | 25581 ft | 447 kts | 244° |
| 2026-05-07 20:59 | 46.36249 | 11.02189 | 25142 ft | 450 kts | 244° |
| 2026-05-07 21:00 | 46.34801 | 10.98152 | 24682 ft | 452 kts | 244° |
| 2026-05-07 21:00 | 46.33350 | 10.94113 | 24264 ft | 452 kts | 244° |
| 2026-05-07 21:00 | 46.31914 | 10.90132 | 23844 ft | 451 kts | 244° |
| 2026-05-07 21:00 | 46.30459 | 10.86105 | 23371 ft | 450 kts | 244° |
| 2026-05-07 21:01 | 46.29032 | 10.82099 | 22867 ft | 447 kts | 244° |
| 2026-05-07 21:01 | 46.27631 | 10.78087 | 22382 ft | 444 kts | 244° |
| 2026-05-07 21:01 | 46.26254 | 10.74093 | 21896 ft | 442 kts | 244° |
| 2026-05-07 21:01 | 46.24904 | 10.70168 | 21409 ft | 439 kts | 244° |
| 2026-05-07 21:02 | 46.23551 | 10.66238 | 20949 ft | 436 kts | 244° |
| 2026-05-07 21:02 | 46.22192 | 10.62314 | 20483 ft | 434 kts | 244° |
| 2026-05-07 21:02 | 46.20840 | 10.58432 | 20024 ft | 431 kts | 244° |
| 2026-05-07 21:02 | 46.19489 | 10.54582 | 19575 ft | 429 kts | 244° |
| 2026-05-07 21:03 | 46.18135 | 10.50736 | 19141 ft | 427 kts | 244° |
| 2026-05-07 21:03 | 46.16808 | 10.46973 | 18716 ft | 424 kts | 244° |
| 2026-05-07 21:03 | 46.15470 | 10.43170 | 18263 ft | 422 kts | 244° |
| 2026-05-07 21:03 | 46.14141 | 10.39399 | 17780 ft | 421 kts | 243° |
| 2026-05-07 21:04 | 46.12817 | 10.35646 | 17297 ft | 418 kts | 243° |
| 2026-05-07 21:04 | 46.11500 | 10.31926 | 16822 ft | 416 kts | 243° |
| 2026-05-07 21:04 | 46.10184 | 10.28215 | 16350 ft | 413 kts | 243° |
| 2026-05-07 21:04 | 46.08877 | 10.24538 | 15895 ft | 411 kts | 243° |
| 2026-05-07 21:05 | 46.07572 | 10.20874 | 15440 ft | 410 kts | 243° |
| 2026-05-07 21:05 | 46.06383 | 10.17537 | 15141 ft | 408 kts | 243° |
| 2026-05-07 21:05 | 46.04975 | 10.14002 | 14889 ft | 407 kts | 236° |
| 2026-05-07 21:05 | 46.03192 | 10.10839 | 14637 ft | 407 kts | 227° |
| 2026-05-07 21:06 | 46.01118 | 10.08153 | 14403 ft | 407 kts | 219° |
| 2026-05-07 21:06 | 45.98856 | 10.05708 | 14161 ft | 406 kts | 218° |
| 2026-05-07 21:06 | 45.96606 | 10.03258 | 13918 ft | 405 kts | 218° |
| 2026-05-07 21:06 | 45.94367 | 10.00803 | 13655 ft | 403 kts | 218° |
| 2026-05-07 21:07 | 45.92140 | 9.98354 | 13384 ft | 400 kts | 218° |
| 2026-05-07 21:07 | 45.89967 | 9.95966 | 13052 ft | 386 kts | 218° |
| 2026-05-07 21:07 | 45.87890 | 9.93609 | 12681 ft | 374 kts | 220° |
| 2026-05-07 21:07 | 45.85957 | 9.91278 | 12319 ft | 362 kts | 221° |
| 2026-05-07 21:08 | 45.84088 | 9.88942 | 12004 ft | 351 kts | 222° |
| 2026-05-07 21:08 | 45.82284 | 9.86659 | 11723 ft | 340 kts | 222° |
| 2026-05-07 21:08 | 45.80530 | 9.84442 | 11443 ft | 331 kts | 222° |
| 2026-05-07 21:08 | 45.78816 | 9.82295 | 11171 ft | 322 kts | 221° |
| 2026-05-07 21:09 | 45.77138 | 9.80218 | 10897 ft | 315 kts | 221° |
| 2026-05-07 21:09 | 45.75490 | 9.78192 | 10629 ft | 309 kts | 221° |
| 2026-05-07 21:09 | 45.73875 | 9.76215 | 10363 ft | 303 kts | 221° |
| 2026-05-07 21:09 | 45.72176 | 9.74545 | 10107 ft | 298 kts | 202° |
| 2026-05-07 21:10 | 45.70152 | 9.73955 | 9702 ft | 298 kts | 182° |
| 2026-05-07 21:10 | 45.68077 | 9.74073 | 9226 ft | 299 kts | 173° |
| 2026-05-07 21:10 | 45.66031 | 9.74680 | 8757 ft | 301 kts | 163° |
| 2026-05-07 21:10 | 45.64079 | 9.75765 | 8293 ft | 302 kts | 154° |
| 2026-05-07 21:11 | 45.62283 | 9.77296 | 7824 ft | 296 kts | 144° |
| 2026-05-07 21:11 | 45.60719 | 9.79142 | 7377 ft | 286 kts | 138° |
| 2026-05-07 21:11 | 45.57906 | 9.82837 | 6702 ft | 262 kts | 137° |
| 2026-05-07 21:12 | 45.56606 | 9.84575 | 6458 ft | 249 kts | 137° |
| 2026-05-07 21:12 | 45.55497 | 9.86382 | 6203 ft | 236 kts | 123° |
| 2026-05-07 21:12 | 45.54780 | 9.88458 | 5946 ft | 231 kts | 108° |
| 2026-05-07 21:12 | 45.54375 | 9.90638 | 5682 ft | 230 kts | 104° |
| 2026-05-07 21:13 | 45.53981 | 9.92847 | 5427 ft | 230 kts | 104° |
| 2026-05-07 21:13 | 45.53795 | 9.95094 | 5179 ft | 227 kts | 81° |
| 2026-05-07 21:13 | 45.54368 | 9.97136 | 4922 ft | 225 kts | 51° |
| 2026-05-07 21:13 | 45.55574 | 9.98483 | 4678 ft | 224 kts | 21° |
| 2026-05-07 21:14 | 45.57071 | 9.99093 | 4425 ft | 223 kts | 11° |
| 2026-05-07 21:14 | 45.58589 | 9.99189 | 4244 ft | 215 kts | 351° |
| 2026-05-07 21:14 | 45.59990 | 9.98580 | 4148 ft | 209 kts | 333° |
| 2026-05-07 21:14 | 45.61162 | 9.97388 | 4049 ft | 201 kts | 314° |
| 2026-05-07 21:15 | 45.61965 | 9.95832 | 3980 ft | 196 kts | 297° |
| 2026-05-07 21:15 | 45.62418 | 9.94016 | 3806 ft | 193 kts | 284° |
| 2026-05-07 21:15 | 45.62763 | 9.92182 | 3573 ft | 189 kts | 284° |
| 2026-05-07 21:15 | 45.63103 | 9.90379 | 3335 ft | 186 kts | 284° |
| 2026-05-07 21:16 | 45.63324 | 9.89200 | 3178 ft | 184 kts | 284° |
| 2026-05-07 21:16 | 45.63747 | 9.86949 | 2857 ft | 168 kts | 284° |
| 2026-05-07 21:16 | 45.64037 | 9.85407 | 2665 ft | 155 kts | 284° |
| 2026-05-07 21:16 | 45.64219 | 9.84436 | 2522 ft | 151 kts | 284° |
| 2026-05-07 21:17 | 45.64488 | 9.83000 | 2328 ft | 148 kts | 284° |
| 2026-05-07 21:17 | 45.64754 | 9.81580 | 2082 ft | 147 kts | 285° |
| 2026-05-07 21:17 | 45.65018 | 9.80173 | 1902 ft | 146 kts | 285° |
| 2026-05-07 21:17 | 45.65278 | 9.78771 | 1695 ft | 144 kts | 286° |
| 2026-05-07 21:18 | 45.65537 | 9.77384 | 1517 ft | 144 kts | 287° |
| 2026-05-07 21:18 | 45.65790 | 9.76035 | 1379 ft | 141 kts | 286° |
| 2026-05-07 21:18 | 45.66041 | 9.74680 | 1156 ft | 142 kts | 287° |
| 2026-05-07 21:18 | 45.66299 | 9.73293 | 986 ft | 144 kts | 286° |
| 2026-05-07 21:19 | 45.66551 | 9.71924 | 802 ft | 139 kts | 287° |
| 2026-05-07 21:19 | 45.66770 | 9.70760 | 787 ft | 98 kts | 284° |
| 2026-05-07 21:19 | 45.66882 | 9.70150 | 787 ft | 31 kts | 284° |
| 2026-05-07 21:19 | 45.66855 | 9.69926 | 787 ft | 20 kts | 243° |
| 2026-05-07 21:20 | 45.66811 | 9.69846 | 787 ft | 9 kts | 199° |
| 2026-05-07 21:20 | 45.66761 | 9.69894 | 787 ft | 11 kts | 105° |
| 2026-05-07 21:20 | 45.66741 | 9.70009 | 787 ft | 13 kts | 105° |
| 2026-05-07 21:20 | 45.66719 | 9.70124 | 787 ft | 4 kts | 105° |
| 2026-05-07 21:21 | 45.66696 | 9.70142 | 787 ft | 5 kts | 182° |
| 2026-05-07 21:21 | 45.66656 | 9.70126 | 787 ft | 7 kts | 195° |
| 2026-05-07 21:21 | 45.66626 | 9.70115 | 787 ft | 2 kts | 194° |
| 2026-05-07 21:21 | 45.66622 | 9.70113 | 787 ft | 0 kts | 194° |